createdAt,value
2015-04-30T10:23:16.459Z,20163
2015-04-30T10:23:26.381Z,14502
2015-04-30T10:23:35.693Z,13662
2015-04-30T10:23:47.414Z,11171
2015-04-30T10:24:15.086Z,25968
2015-04-30T10:24:24.336Z,27298
2015-04-30T10:24:34.664Z,35473
2015-04-30T10:24:43.917Z,34732
2015-04-30T10:24:53.323Z,35176
2015-04-30T10:25:07.089Z,35232
2015-04-30T10:25:17.605Z,35960
2015-04-30T10:25:27.886Z,35968
2015-04-30T10:25:38.855Z,35057
2015-04-30T10:25:49.186Z,36683
2015-04-30T10:25:59.123Z,35901
2015-04-30T10:26:08.233Z,35582
2015-04-30T10:26:19.264Z,35199
2015-04-30T10:26:28.514Z,35107
2015-04-30T10:26:38.295Z,34959
2015-04-30T10:26:49.485Z,24056
2015-04-30T10:26:58.735Z,23686
2015-04-30T10:27:07.953Z,25823
2015-04-30T10:27:19.578Z,26205
2015-04-30T10:27:28.813Z,25808
2015-04-30T10:27:38.547Z,25467
2015-04-30T10:27:49.425Z,25485
2015-04-30T10:27:59.175Z,25851
2015-04-30T10:28:08.909Z,25218
2015-04-30T10:28:20.019Z,26113
2015-04-30T10:28:29.909Z,25303
2015-04-30T10:28:39.128Z,25418
2015-04-30T10:28:48.427Z,25394
2015-04-30T10:28:57.724Z,25057
2015-04-30T10:29:10.974Z,26016
2015-04-30T10:29:20.786Z,25170
2015-04-30T10:29:30.068Z,25136
2015-04-30T10:29:43.195Z,25348
2015-04-30T10:29:52.507Z,25110
2015-04-30T10:30:01.757Z,24714
2015-04-30T10:31:05.634Z,24664
2015-04-30T10:31:15.790Z,25285
2015-04-30T10:31:24.978Z,26279
2015-04-30T10:31:34.290Z,25723
2015-04-30T10:31:45.575Z,25783
2015-04-30T10:31:55.559Z,24410
2015-04-30T10:32:05.403Z,24497
2015-04-30T10:32:15.262Z,24919
2015-04-30T10:32:24.497Z,23730
2015-04-30T10:32:34.215Z,23464
2015-04-30T10:32:43.483Z,23167
2015-04-30T10:32:52.764Z,23142
2015-04-30T10:33:02.077Z,23033
2015-04-30T10:33:11.374Z,23025
2015-04-30T10:33:21.405Z,23206
2015-04-30T10:33:30.639Z,23291
2015-04-30T10:33:39.905Z,22762
2015-04-30T10:33:50.954Z,22714
2015-04-30T10:34:00.188Z,22628
2015-04-30T10:34:09.547Z,22801
2015-04-30T10:34:18.813Z,22652
2015-04-30T10:34:28.141Z,23236
2015-04-30T10:34:37.376Z,23378
2015-04-30T10:34:46.518Z,22610
2015-04-30T10:34:55.815Z,23148
2015-04-30T10:35:05.143Z,22723
2015-04-30T10:35:14.893Z,23178
2015-04-30T10:35:24.221Z,23210
2015-04-30T10:35:33.534Z,23254
2015-04-30T10:35:43.584Z,23343
2015-04-30T10:35:52.756Z,23337
2015-04-30T10:46:03.090Z,15003
2015-04-30T10:46:13.231Z,14766
2015-04-30T10:46:22.871Z,14360
2015-04-30T10:46:34.592Z,15315
2015-04-30T10:46:45.608Z,15235
2015-04-30T10:46:54.873Z,14743
2015-04-30T10:47:05.030Z,13301
2015-04-30T10:47:17.045Z,14800
2015-04-30T10:47:26.923Z,13707
2015-04-30T10:47:37.517Z,13888
2015-04-30T10:47:49.126Z,12581
2015-04-30T10:47:59.017Z,12268
2015-04-30T10:48:08.720Z,11424
2015-04-30T10:48:21.361Z,12991
2015-04-30T10:48:34.894Z,14380
2015-04-30T10:48:45.691Z,14093
2015-04-30T10:48:56.910Z,13878
2015-04-30T10:49:07.800Z,13975
2015-04-30T10:49:23.003Z,13348
2015-04-30T10:49:38.958Z,14533
2015-04-30T10:49:58.333Z,14228
2015-04-30T10:50:10.021Z,14476
2015-04-30T10:50:24.552Z,14460
2015-04-30T10:50:35.883Z,14085
2015-04-30T10:50:49.993Z,14157
2015-04-30T10:51:09.102Z,14122
2015-04-30T10:51:19.836Z,13352
2015-04-30T10:51:29.120Z,12950
2015-04-30T10:51:38.667Z,12702
2015-04-30T10:51:48.307Z,12179
2015-04-30T10:51:59.182Z,13175
2015-04-30T10:52:08.573Z,13527
2015-04-30T10:52:18.557Z,14475
2015-04-30T10:52:28.573Z,14330
2015-04-30T10:52:39.372Z,14591
2015-04-30T10:52:48.903Z,15701
2015-04-30T10:52:58.934Z,16038
2015-04-30T10:53:08.809Z,17104
2015-04-30T10:53:18.059Z,17246
2015-04-30T10:53:29.153Z,17379
2015-04-30T10:53:38.343Z,17105
2015-04-30T10:53:48.625Z,17245
2015-04-30T10:53:57.906Z,17179
2015-04-30T10:54:14.297Z,20436
2015-04-30T10:54:23.547Z,22483
2015-04-30T10:54:33.002Z,16544
2015-04-30T10:54:43.924Z,16483
2015-04-30T10:54:53.502Z,21981
2015-04-30T10:55:02.845Z,21509
2015-04-30T10:55:12.814Z,20922
2015-04-30T10:55:27.314Z,20004
2015-04-30T10:55:36.582Z,17209
2015-04-30T10:55:46.222Z,15672
2015-04-30T10:55:55.457Z,15540
2015-04-30T10:56:05.222Z,15273
2015-04-30T10:56:14.410Z,17038
2015-04-30T10:56:25.660Z,16366
2015-04-30T10:56:35.443Z,12666
2015-04-30T10:56:46.287Z,11911
2015-04-30T10:56:56.021Z,18066
2015-04-30T10:57:05.318Z,18444
2015-04-30T10:57:14.553Z,16330
2015-04-30T10:57:23.787Z,16442
2015-04-30T10:57:33.024Z,15529
2015-04-30T10:57:42.290Z,15258
2015-04-30T10:57:51.587Z,14556
2015-04-30T10:58:00.884Z,14423
2015-04-30T10:58:10.524Z,14370
2015-04-30T10:58:20.399Z,13864
2015-04-30T10:58:30.259Z,13818
2015-04-30T10:58:41.964Z,13745
2015-04-30T10:59:09.042Z,13969
2015-04-30T10:59:18.589Z,14160
2015-04-30T10:59:27.948Z,13478
2015-04-30T10:59:37.185Z,14125
2015-04-30T10:59:46.435Z,13911
2015-04-30T10:59:56.247Z,14499
2015-04-30T11:00:05.747Z,11723
2015-04-30T11:00:16.794Z,11043
2015-04-30T11:00:26.513Z,10251
2015-04-30T11:00:36.641Z,9772
2015-04-30T11:00:48.266Z,9609
2015-04-30T11:00:57.547Z,9455
2015-04-30T11:01:08.125Z,9404
2015-04-30T11:01:17.469Z,9482
2015-04-30T11:01:27.281Z,9132
2015-04-30T11:01:36.815Z,8864
2015-04-30T11:01:47.158Z,8715
2015-04-30T11:01:56.783Z,8641
2015-04-30T11:02:06.674Z,8531
2015-04-30T11:02:16.018Z,8646
2015-04-30T11:02:25.940Z,8586
2015-04-30T11:02:35.613Z,8529
2015-04-30T11:02:45.488Z,8529
2015-04-30T11:02:55.457Z,8456
2015-04-30T11:03:05.410Z,8521
2015-04-30T11:03:14.785Z,8605
2015-04-30T11:04:16.429Z,9764
2015-04-30T11:04:25.632Z,9836
2015-04-30T11:04:34.913Z,10067
2015-04-30T11:04:45.494Z,10112
2015-04-30T11:04:54.838Z,11559
2015-04-30T11:07:13.530Z,7088
2015-04-30T11:07:24.873Z,7059
2015-04-30T11:07:35.061Z,6969
2015-04-30T11:07:44.842Z,6921
2015-04-30T11:07:54.345Z,7001
2015-04-30T11:08:05.298Z,7076
2015-04-30T11:08:14.533Z,7255
2015-04-30T11:08:23.798Z,9658
2015-04-30T11:08:34.626Z,11763
2015-04-30T11:08:43.923Z,8968
2015-04-30T11:08:53.283Z,8262
2015-04-30T11:09:04.160Z,12425
2015-04-30T11:09:13.410Z,9353
2015-04-30T11:09:22.722Z,15332
2015-04-30T11:09:31.910Z,15593
2015-04-30T11:09:42.472Z,14111
2015-04-30T11:09:53.300Z,10210
2015-04-30T11:10:02.491Z,9273
2015-04-30T11:10:11.756Z,9408
2015-04-30T11:10:21.038Z,9663
2015-04-30T11:10:31.272Z,14182
2015-04-30T11:10:40.569Z,16244
2015-04-30T11:10:49.819Z,15004
2015-04-30T11:11:00.555Z,13785
2015-04-30T11:11:09.805Z,15807
2015-04-30T11:11:19.196Z,14817
2015-04-30T11:11:29.649Z,13758
2015-04-30T11:11:40.383Z,17086
2015-04-30T11:11:50.383Z,15847
2015-04-30T11:11:59.652Z,10976
2015-04-30T11:12:10.949Z,10370
2015-04-30T11:12:21.933Z,12442
2015-04-30T11:12:34.261Z,9610
2015-04-30T11:12:44.746Z,9462
2015-04-30T11:12:57.607Z,9828
2015-04-30T11:13:06.842Z,9658
2015-04-30T11:13:16.826Z,9246
2015-04-30T11:13:26.404Z,9440
2015-04-30T11:13:39.154Z,14333
2015-04-30T11:13:48.420Z,10157
2015-04-30T11:13:57.734Z,9396
2015-04-30T11:14:08.469Z,9378
2015-04-30T11:14:17.703Z,9249
2015-04-30T11:14:28.594Z,9141
2015-04-30T11:14:37.844Z,9024
2015-04-30T11:14:48.187Z,9102
2015-04-30T11:14:57.408Z,8646
2015-04-30T11:15:06.642Z,8845
2015-04-30T11:15:15.892Z,9257
2015-04-30T11:15:25.158Z,9429
2015-04-30T11:15:36.205Z,9541
2015-04-30T11:15:45.455Z,9534
2015-04-30T11:15:54.674Z,9673
2015-04-30T11:16:04.363Z,9555
2015-04-30T11:16:14.301Z,9452
2015-04-30T11:16:23.535Z,9455
2015-04-30T11:16:32.801Z,9299
2015-04-30T11:16:42.082Z,9132
2015-04-30T11:16:51.316Z,9058
2015-04-30T11:17:01.257Z,8948
2015-04-30T11:17:10.991Z,8659
2015-04-30T11:17:20.272Z,8458
2015-04-30T11:17:29.601Z,8294
2015-04-30T11:17:40.210Z,8190
2015-04-30T11:17:49.444Z,8068
2015-04-30T11:17:58.759Z,8070
2015-04-30T11:18:07.993Z,7978
2015-04-30T11:18:17.290Z,7917
2015-04-30T11:18:26.556Z,7894
2015-04-30T11:18:36.415Z,7921
2015-04-30T11:18:46.337Z,8073
2015-04-30T11:18:55.603Z,8223
